createdAt,value
2022-11-24T00:00:30.774Z,99657.02
2022-11-24T00:05:53.704Z,99662.48
2022-11-24T00:10:56.695Z,99666.32
2022-11-24T00:16:11.914Z,99673.98
2022-11-24T00:21:16.790Z,99682.13
2022-11-24T00:26:34.845Z,99681.27
2022-11-24T00:31:40.297Z,99686.08
2022-11-24T00:36:43.630Z,99688.95
2022-11-24T00:41:46.615Z,99680.55
2022-11-24T00:46:50.117Z,99675.64
2022-11-24T00:51:53.316Z,99675.98
2022-11-24T00:56:56.371Z,99683.48
2022-11-24T01:01:59.368Z,99678.86
2022-11-24T01:07:02.359Z,99667.56
2022-11-24T01:12:05.619Z,99654.60
2022-11-24T01:17:08.640Z,99653.00
2022-11-24T01:22:11.630Z,99659.96
2022-11-24T01:27:14.683Z,99659.82
2022-11-24T01:32:17.638Z,99648.67
2022-11-24T01:37:20.709Z,99643.66
2022-11-24T01:42:23.732Z,99644.98
2022-11-24T01:47:29.685Z,99650.91
2022-11-24T01:52:42.154Z,99662.68
2022-11-24T01:57:51.929Z,99659.39
2022-11-24T02:02:55.018Z,99665.07
2022-11-24T02:08:01.401Z,99668.64
2022-11-24T02:13:05.557Z,99683.06
2022-11-24T02:18:08.791Z,99688.10
2022-11-24T02:23:26.485Z,99684.30
2022-11-24T02:28:31.071Z,99664.52
2022-11-24T02:33:35.219Z,99653.67
2022-11-24T02:38:38.350Z,99673.54
2022-11-24T02:43:49.316Z,99671.88
2022-11-24T02:48:52.385Z,99673.55
2022-11-24T02:53:55.356Z,99666.01
2022-11-24T02:58:58.583Z,99649.15
2022-11-24T03:04:01.570Z,99653.06
2022-11-24T03:09:05.714Z,99682.75
2022-11-24T03:14:09.073Z,99671.65
2022-11-24T03:19:12.187Z,99668.17
2022-11-24T03:24:15.218Z,99666.95
2022-11-24T03:29:18.328Z,99670.33
2022-11-24T03:34:21.374Z,99653.65
2022-11-24T03:39:24.417Z,99661.11
2022-11-24T03:44:27.430Z,99663.23
2022-11-24T03:49:30.707Z,99672.13
2022-11-24T03:54:34.047Z,99663.27
2022-11-24T03:59:37.183Z,99660.22
2022-11-24T04:04:40.566Z,99676.16
2022-11-24T04:09:43.569Z,99685.39
2022-11-24T04:14:46.584Z,99684.41
2022-11-24T04:19:49.615Z,99687.19
2022-11-24T04:24:52.631Z,99687.77
2022-11-24T04:29:55.701Z,99679.89
2022-11-24T04:34:58.669Z,99688.33
2022-11-24T04:40:01.687Z,99689.70
2022-11-24T04:45:06.073Z,99687.13
2022-11-24T04:50:09.525Z,99689.16
2022-11-24T04:55:12.571Z,99690.91
2022-11-24T05:00:15.931Z,99694.43
2022-11-24T05:05:19.215Z,99691.30
2022-11-24T05:10:37.459Z,99703.95
2022-11-24T05:15:41.969Z,99708.08
2022-11-24T05:20:45.198Z,99705.10
2022-11-24T05:25:48.177Z,99709.63
2022-11-24T05:30:51.125Z,99718.36
2022-11-24T05:35:55.341Z,99724.71
2022-11-24T05:41:03.199Z,99724.52
2022-11-24T05:46:06.250Z,99724.45
2022-11-24T05:51:09.659Z,99719.66
2022-11-24T05:56:12.500Z,99728.45
2022-11-24T06:01:15.619Z,99733.13
2022-11-24T06:06:18.440Z,99721.75
2022-11-24T06:11:21.684Z,99722.25
2022-11-24T06:16:24.590Z,99734.89
2022-11-24T06:21:28.292Z,99737.28
2022-11-24T06:26:31.102Z,99756.90
2022-11-24T06:31:33.989Z,99765.27
2022-11-24T06:36:37.544Z,99771.61
2022-11-24T06:41:40.713Z,99776.89
2022-11-24T06:46:43.465Z,99784.85
2022-11-24T06:51:46.272Z,99779.42
2022-11-24T06:56:49.086Z,99773.57
2022-11-24T07:01:52.109Z,99772.82
2022-11-24T07:06:54.873Z,99765.88
2022-11-24T07:11:58.285Z,99767.20
2022-11-24T07:17:02.634Z,99772.05
2022-11-24T07:22:05.464Z,99775.61
2022-11-24T07:27:08.218Z,99796.59
2022-11-24T07:32:11.037Z,99808.64
2022-11-24T07:37:13.860Z,99814.14
2022-11-24T07:42:16.641Z,99810.26
2022-11-24T07:47:19.360Z,99811.31
2022-11-24T07:52:22.155Z,99804.30
2022-11-24T07:57:24.901Z,99804.98
2022-11-24T08:02:27.688Z,99796.20
2022-11-24T08:07:30.630Z,99792.08
2022-11-24T08:12:33.697Z,99792.06
2022-11-24T08:17:36.770Z,99793.81
2022-11-24T08:22:39.575Z,99799.80
2022-11-24T08:27:42.371Z,99816.23
2022-11-24T08:32:45.150Z,99815.91
2022-11-24T08:37:47.881Z,99818.13
2022-11-24T08:42:50.664Z,99812.02
2022-11-24T08:47:54.736Z,99826.91
2022-11-24T08:52:57.526Z,99827.48
2022-11-24T08:58:00.307Z,99827.91
2022-11-24T09:03:03.092Z,99829.55
2022-11-24T09:08:06.246Z,99824.13
2022-11-24T09:13:09.634Z,99816.35
2022-11-24T09:18:12.457Z,99804.48
2022-11-24T09:23:15.145Z,99803.73
2022-11-24T09:28:17.840Z,99801.14
2022-11-24T09:33:20.653Z,99815.76
2022-11-24T09:38:23.617Z,99817.27
2022-11-24T09:43:52.827Z,99821.88
2022-11-24T09:48:58.632Z,99838.20
2022-11-24T09:54:09.469Z,99842.79
2022-11-24T09:59:18.361Z,99836.96
2022-11-24T10:04:44.793Z,99837.20
2022-11-24T10:09:56.485Z,99831.77
2022-11-24T10:15:06.269Z,99838.82
2022-11-24T10:20:41.505Z,99836.67
2022-11-24T10:25:56.576Z,99844.88
2022-11-24T10:31:28.880Z,99833.87
2022-11-24T10:36:38.198Z,99834.61
2022-11-24T10:41:52.735Z,99833.98
2022-11-24T10:46:55.607Z,99830.17
2022-11-24T10:52:02.192Z,99824.90
2022-11-24T10:57:05.088Z,99827.30
2022-11-24T11:02:29.181Z,99830.58
2022-11-24T11:07:32.146Z,99833.25
2022-11-24T11:12:44.075Z,99835.08
2022-11-24T11:17:50.596Z,99841.98
2022-11-24T11:22:55.960Z,99838.70
2022-11-24T11:28:22.114Z,99832.72
2022-11-24T11:38:54.086Z,99840.89
2022-11-24T11:44:26.146Z,99842.73
2022-11-24T11:49:28.975Z,99840.95
2022-11-24T11:55:01.107Z,99841.55
2022-11-24T12:00:09.991Z,99847.42
2022-11-24T12:05:22.591Z,99857.27
2022-11-24T12:10:25.419Z,99855.66
2022-11-24T12:15:36.692Z,99852.45
2022-11-24T12:20:39.511Z,99848.79
2022-11-24T12:25:52.671Z,99847.29
2022-11-24T12:31:07.298Z,99847.11
2022-11-24T12:36:28.120Z,99847.47
2022-11-24T12:41:47.792Z,99844.00
2022-11-24T12:47:02.830Z,99845.23
2022-11-24T12:52:46.785Z,99847.15
2022-11-24T12:58:09.456Z,99842.20
2022-11-24T13:03:53.747Z,99840.45
2022-11-24T13:08:56.981Z,99844.54
2022-11-24T13:14:03.030Z,99848.30
2022-11-24T13:19:26.424Z,99845.77
2022-11-24T13:24:32.137Z,99847.20
2022-11-24T13:29:36.899Z,99848.33
2022-11-24T13:34:40.064Z,99844.57
2022-11-24T13:40:03.288Z,99848.78
2022-11-24T13:45:46.878Z,99841.95
2022-11-24T13:50:49.889Z,99850.86
2022-11-24T13:55:59.352Z,99851.48
2022-11-24T14:01:24.347Z,99854.61
2022-11-24T14:06:51.078Z,99865.92
2022-11-24T14:12:06.314Z,99863.09
2022-11-24T14:17:18.290Z,99874.42
2022-11-24T14:22:23.130Z,99883.09
2022-11-24T14:27:32.434Z,99888.15
2022-11-24T14:32:35.916Z,99895.67
2022-11-24T14:37:38.722Z,99899.27
2022-11-24T14:42:41.500Z,99907.08
2022-11-24T14:47:45.315Z,99903.55
2022-11-24T14:52:56.562Z,99905.05
2022-11-24T14:58:00.042Z,99907.27
2022-11-24T15:03:02.843Z,99912.84
2022-11-24T15:08:05.771Z,99910.33
2022-11-24T15:13:23.595Z,99915.48
2022-11-24T15:18:31.400Z,99922.52
2022-11-24T15:23:35.538Z,99922.65
2022-11-24T15:28:41.403Z,99922.51
2022-11-24T15:33:44.758Z,99929.65
2022-11-24T15:38:52.464Z,99927.03
2022-11-24T15:44:01.312Z,99927.73
2022-11-24T15:49:04.755Z,99924.27
2022-11-24T15:54:13.748Z,99920.93
2022-11-24T15:59:20.747Z,99921.91
2022-11-24T16:04:24.139Z,99922.96
2022-11-24T16:09:26.877Z,99920.48
2022-11-24T16:14:30.261Z,99922.75
2022-11-24T16:19:36.180Z,99929.34
2022-11-24T16:24:43.417Z,99929.42
2022-11-24T16:29:46.419Z,99934.07
2022-11-24T16:34:49.143Z,99935.18
2022-11-24T16:39:51.871Z,99938.34
2022-11-24T16:44:55.093Z,99942.45
2022-11-24T16:49:57.936Z,99940.20
2022-11-24T16:55:01.715Z,99942.92
2022-11-24T17:00:06.090Z,99944.44
2022-11-24T17:05:09.705Z,99948.60
2022-11-24T17:10:12.686Z,99954.00
2022-11-24T17:15:32.736Z,99958.17
2022-11-24T17:20:36.274Z,99961.94
2022-11-24T17:25:39.490Z,99977.31
2022-11-24T17:30:42.723Z,99981.34
2022-11-24T17:35:45.568Z,99981.41
2022-11-24T17:40:48.379Z,99984.17
2022-11-24T17:46:00.530Z,99988.29
2022-11-24T17:51:10.130Z,99993.64
2022-11-24T17:56:14.905Z,100006.02
2022-11-24T18:01:17.804Z,100014.06
2022-11-24T18:06:25.048Z,100006.27
2022-11-24T18:11:31.707Z,100010.55
2022-11-24T18:16:35.352Z,100010.98
2022-11-24T18:21:40.576Z,100011.49
2022-11-24T18:26:43.807Z,100016.27
2022-11-24T18:31:46.561Z,100021.42
2022-11-24T18:36:52.120Z,100022.15
2022-11-24T18:41:54.917Z,100031.56
2022-11-24T18:46:57.824Z,100022.48
2022-11-24T18:52:01.109Z,100041.06
2022-11-24T18:57:04.055Z,100032.44
2022-11-24T19:02:06.828Z,100031.71
2022-11-24T19:07:09.628Z,100039.60
2022-11-24T19:12:12.418Z,100033.14
2022-11-24T19:17:15.116Z,100024.29
2022-11-24T19:22:17.937Z,100024.34
2022-11-24T19:27:21.900Z,100022.24
2022-11-24T19:32:24.636Z,100026.73
2022-11-24T19:37:30.403Z,100029.81
2022-11-24T19:42:33.401Z,100040.27
2022-11-24T19:47:36.117Z,100051.10
2022-11-24T19:52:38.821Z,100059.30
2022-11-24T19:57:42.005Z,100063.88
2022-11-24T20:02:44.874Z,100064.35
2022-11-24T20:07:47.781Z,100064.48
2022-11-24T20:12:50.534Z,100067.91
2022-11-24T20:17:53.269Z,100067.58
2022-11-24T20:22:55.973Z,100072.39
2022-11-24T20:27:58.748Z,100075.79
2022-11-24T20:33:01.451Z,100077.79
2022-11-24T20:43:24.624Z,100088.48
2022-11-24T20:48:27.347Z,100098.77
2022-11-24T20:53:30.135Z,100092.70
2022-11-24T20:58:34.789Z,100086.91
2022-11-24T21:03:42.977Z,100097.64
2022-11-24T21:08:46.372Z,100105.96
2022-11-24T21:13:50.361Z,100114.14
2022-11-24T21:18:56.289Z,100112.44
2022-11-24T21:23:59.041Z,100112.02
2022-11-24T21:29:01.800Z,100113.29
2022-11-24T21:34:06.128Z,100120.11
2022-11-24T21:39:12.790Z,100118.73
2022-11-24T21:44:15.772Z,100117.86
2022-11-24T21:49:18.593Z,100116.15
2022-11-24T21:54:22.269Z,100122.52
2022-11-24T21:59:25.374Z,100111.45
2022-11-24T22:04:28.088Z,100106.19
2022-11-24T22:09:30.808Z,100107.54
2022-11-24T22:14:37.541Z,100108.66
2022-11-24T22:19:42.997Z,100108.63
2022-11-24T22:24:45.741Z,100114.55
2022-11-24T22:29:53.874Z,100122.96
2022-11-24T22:34:56.991Z,100129.00
2022-11-24T22:39:59.744Z,100135.61
2022-11-24T22:45:02.928Z,100134.88
2022-11-24T22:50:06.493Z,100140.48
2022-11-24T22:55:09.232Z,100152.26
2022-11-24T23:00:12.924Z,100152.30
2022-11-24T23:05:20.560Z,100154.93
2022-11-24T23:10:23.722Z,100152.67
2022-11-24T23:15:26.513Z,100155.20
2022-11-24T23:20:29.288Z,100153.77
2022-11-24T23:25:34.094Z,100153.08
2022-11-24T23:30:36.904Z,100150.89
2022-11-24T23:35:39.779Z,100146.98
2022-11-24T23:40:42.524Z,100143.77
2022-11-24T23:45:45.365Z,100138.16
2022-11-24T23:50:48.140Z,100129.94
2022-11-24T23:55:56.987Z,100131.60
